Time;durP1;ratioP1;P1;durP2;ratioP2;P2;SDS_P1;SDS_P2;PMS_P1;PMS_P2;Temp;Humidity;BMP_temperature;BMP_pressure;BME280_temperature;BME280_humidity;BME280_pressure;Samples;Min_cycle;Max_cycle;Signal;HPM_P1;HPM_P2
2023/04/21 00:01:41;;;;;;;8.25;4.15;;;7.20;99.90;;;6.33;82.21;100801.09;4137570;28;20026;-76
2023/04/21 00:03:42;;;;;;;11.40;4.60;;;7.20;99.90;;;6.32;82.50;100806.47;4136447;28;20042;-76
2023/04/21 00:05:43;;;;;;;8.52;4.20;;;7.10;99.90;;;6.28;82.63;100799.81;4137607;28;20110;-76
2023/04/21 00:07:44;;;;;;;9.52;4.75;;;7.00;99.90;;;6.23;83.50;100791.53;4136642;28;20037;-76
2023/04/21 00:09:45;;;;;;;10.43;4.80;;;7.00;99.90;;;6.22;83.68;100806.41;4129405;28;20442;-76
2023/04/21 00:11:46;;;;;;;7.53;4.40;;;7.00;99.90;;;6.20;83.94;100803.09;4133776;28;20044;-77
2023/04/21 00:13:47;;;;;;;12.23;4.10;;;7.00;99.90;;;6.17;84.48;100805.97;4136372;28;20037;-76
2023/04/21 00:15:48;;;;;;;10.50;4.28;;;6.90;99.90;;;6.09;84.86;100784.81;4126482;28;20086;-76
2023/04/21 00:17:48;;;;;;;8.00;4.35;;;6.90;99.90;;;6.08;85.34;100786.59;4137692;28;20041;-76
2023/04/21 00:19:50;;;;;;;12.27;4.95;;;6.80;99.90;;;6.05;85.85;100781.59;4137563;28;20034;-76
2023/04/21 00:21:57;;;;;;;9.57;5.07;;;6.80;99.90;;;6.08;86.58;100785.75;4136357;28;20041;-76
2023/04/21 00:23:58;;;;;;;9.63;4.35;;;6.80;99.90;;;6.05;86.90;100781.59;4127119;28;20125;-76
2023/04/21 00:26:01;;;;;;;12.98;5.22;;;6.80;99.90;;;6.01;87.43;100780.19;4136171;28;20069;-76
2023/04/21 00:28:02;;;;;;;13.30;5.07;;;6.80;99.90;;;6.01;87.80;100774.94;4137456;28;20388;-76
2023/04/21 00:30:04;;;;;;;11.90;5.15;;;6.80;99.90;;;5.99;88.04;100776.03;4135786;28;20049;-76
2023/04/21 00:32:08;;;;;;;7.00;4.25;;;6.80;99.90;;;5.95;89.00;100764.16;4126826;28;20048;-76
2023/04/21 00:34:09;;;;;;;12.18;4.80;;;6.80;99.90;;;5.95;89.55;100779.84;4137135;28;20034;-76
2023/04/21 00:36:10;;;;;;;9.18;4.68;;;6.80;99.90;;;5.93;89.56;100777.38;4136012;28;20034;-76
2023/04/21 00:38:11;;;;;;;7.10;4.45;;;6.70;99.90;;;5.86;90.01;100765.72;4123329;28;20415;-76
2023/04/21 00:40:12;;;;;;;12.00;4.75;;;6.70;99.90;;;5.85;90.45;100760.59;4136158;28;20029;-76
2023/04/21 00:42:16;;;;;;;8.20;4.63;;;6.70;99.90;;;5.81;91.33;100759.19;4137119;28;20030;-76
2023/04/21 00:44:16;;;;;;;9.80;4.82;;;6.60;99.90;;;5.84;92.19;100756.31;4122489;28;20043;-76
2023/04/21 00:46:17;;;;;;;10.82;5.15;;;6.60;99.90;;;5.76;92.27;100759.56;4120948;28;20089;-76
2023/04/21 00:48:18;;;;;;;12.77;5.07;;;6.60;99.90;;;5.80;93.17;100762.75;4126404;28;20030;-77
2023/04/21 00:50:19;;;;;;;8.82;4.90;;;6.50;99.90;;;5.76;93.58;100758.75;4145626;28;20033;-76
2023/04/21 00:52:20;;;;;;;9.18;5.07;;;6.60;99.90;;;5.71;94.24;100760.88;4132604;28;20506;-76
2023/04/21 00:54:24;;;;;;;8.25;4.70;;;6.50;99.90;;;5.69;94.42;100768.03;4136966;28;20034;-76
2023/04/21 00:56:29;;;;;;;10.05;5.35;;;6.50;99.90;;;5.65;95.26;100764.00;4136984;28;20482;-76
2023/04/21 00:58:32;;;;;;;9.00;4.85;;;6.50;99.90;;;5.63;95.96;100758.06;4135596;28;20084;-76
2023/04/21 01:00:33;;;;;;;12.48;6.05;;;6.50;99.90;;;5.65;96.57;100756.97;4133026;28;20114;-77
2023/04/21 01:02:36;;;;;;;14.73;5.53;;;6.50;99.90;;;5.64;97.32;100755.34;4137010;28;20035;-76
2023/04/21 01:04:39;;;;;;;18.20;5.75;;;6.50;99.90;;;5.58;97.79;100740.94;4135849;28;20029;-76
2023/04/21 01:06:41;;;;;;;10.23;4.90;;;6.40;99.90;;;5.59;98.26;100763.53;4131274;28;20108;-76
2023/04/21 01:08:47;;;;;;;9.43;4.40;;;6.40;99.90;;;5.55;98.72;100746.41;4135291;28;20510;-76
2023/04/21 01:10:48;;;;;;;11.30;5.13;;;6.40;99.90;;;5.51;99.26;100758.09;4135424;28;20029;-76
2023/04/21 01:12:49;;;;;;;8.68;4.72;;;6.40;99.90;;;5.47;99.92;100743.59;4129046;28;20030;-77
2023/04/21 01:14:49;;;;;;;9.93;4.85;;;6.30;99.90;;;5.52;100.00;100749.31;4135182;28;20053;-76
2023/04/21 01:16:51;;;;;;;10.45;5.03;;;6.30;99.90;;;5.45;100.00;100742.91;4133899;28;20026;-76
2023/04/21 01:18:52;;;;;;;9.35;5.07;;;6.30;99.90;;;5.48;100.00;100755.72;4135552;28;20070;-76
2023/04/21 01:20:53;;;;;;;10.35;5.80;;;6.30;99.90;;;5.45;100.00;100753.34;4127188;28;20117;-76
2023/04/21 01:22:54;;;;;;;10.45;4.47;;;6.20;99.90;;;5.42;100.00;100750.16;4120544;28;20054;-76
2023/04/21 01:24:55;;;;;;;10.68;5.45;;;6.30;99.90;;;5.40;100.00;100745.06;4120419;28;20027;-76
2023/04/21 01:26:56;;;;;;;9.52;5.18;;;6.20;99.90;;;5.36;100.00;100727.94;4120628;28;20026;-76
2023/04/21 01:28:57;;;;;;;9.32;5.38;;;6.20;99.90;;;5.41;100.00;100733.63;4120437;28;20467;-76
2023/04/21 01:30:59;;;;;;;10.00;5.75;;;6.20;99.90;;;5.37;100.00;100723.53;4130009;28;20105;-76
2023/04/21 01:33:00;;;;;;;14.63;5.55;;;6.20;99.90;;;5.35;100.00;100718.41;4133485;28;20050;-76
2023/04/21 01:35:01;;;;;;;13.27;5.70;;;6.20;99.90;;;5.36;100.00;100724.50;4123755;28;20521;-76
2023/04/21 01:37:02;;;;;;;10.80;6.10;;;6.20;99.90;;;5.37;100.00;100724.38;4136427;28;20156;-76
2023/04/21 01:39:03;;;;;;;14.30;5.53;;;6.20;99.90;;;5.35;100.00;100725.44;4135216;28;20034;-76
2023/04/21 01:41:04;;;;;;;8.65;5.32;;;6.20;99.90;;;5.28;100.00;100722.50;4132234;28;20525;-76
2023/04/21 01:43:05;;;;;;;14.40;5.25;;;6.10;99.90;;;5.26;100.00;100719.16;4122337;28;20057;-76
2023/04/21 01:45:07;;;;;;;11.77;5.40;;;6.10;99.90;;;5.28;100.00;100724.28;4118646;28;20054;-76
2023/04/21 01:47:10;;;;;;;7.18;5.35;;;6.10;99.90;;;5.22;100.00;100728.22;4136322;28;20018;-76
2023/04/21 01:49:10;;;;;;;14.02;6.45;;;6.00;99.90;;;5.19;100.00;100725.00;4136263;28;20046;-76
2023/04/21 01:51:11;;;;;;;11.07;6.38;;;6.00;99.90;;;5.18;100.00;100721.56;4136317;28;20034;-76
2023/04/21 01:53:12;;;;;;;11.25;6.47;;;6.00;99.90;;;5.19;100.00;100722.41;4135079;28;20511;-76
2023/04/21 01:55:13;;;;;;;9.80;6.78;;;6.00;99.90;;;5.16;100.00;100726.09;4130124;28;20398;-76
2023/04/21 01:57:16;;;;;;;10.32;5.80;;;6.00;99.90;;;5.15;100.00;100727.03;4136092;28;20065;-76
2023/04/21 01:59:16;;;;;;;13.63;6.45;;;6.00;99.90;;;5.13;100.00;100721.09;4136222;28;20038;-76
2023/04/21 02:01:17;;;;;;;11.15;6.07;;;5.90;99.90;;;5.13;100.00;100722.88;4129130;28;20565;-77
2023/04/21 02:03:18;;;;;;;16.50;6.55;;;5.90;99.90;;;5.11;100.00;100723.00;4128845;28;20105;-76
2023/04/21 02:05:19;;;;;;;11.30;6.78;;;5.90;99.90;;;5.17;100.00;100726.94;4133152;28;20034;-77
2023/04/21 02:07:20;;;;;;;11.38;5.93;;;5.90;99.90;;;5.13;100.00;100712.44;4136207;28;20053;-76
2023/04/21 02:09:21;;;;;;;11.70;6.75;;;5.90;99.90;;;5.11;100.00;100715.16;4134733;28;20038;-76
2023/04/21 02:11:23;;;;;;;13.43;5.97;;;5.90;99.90;;;5.10;100.00;100716.13;4134872;28;20022;-76
2023/04/21 02:13:24;;;;;;;9.63;6.38;;;5.90;99.90;;;5.05;100.00;100707.78;4133183;28;20026;-76
2023/04/21 02:15:25;;;;;;;11.25;6.68;;;5.90;99.90;;;5.01;100.00;100704.59;4134731;28;20030;-76
2023/04/21 02:17:26;;;;;;;11.10;6.07;;;5.90;99.90;;;4.99;100.00;100706.50;4125223;28;20109;-76
2023/04/21 02:19:27;;;;;;;11.80;7.15;;;5.80;99.90;;;4.97;100.00;100716.25;4132174;28;20038;-76
2023/04/21 02:21:28;;;;;;;11.45;6.72;;;5.80;99.90;;;4.95;100.00;100712.94;4139429;28;20034;-76
2023/04/21 02:23:29;;;;;;;9.55;5.80;;;5.80;99.90;;;4.90;100.00;100715.06;4139530;28;20030;-76
2023/04/21 02:25:30;;;;;;;10.88;6.15;;;5.70;99.90;;;4.89;100.00;100712.56;4138322;28;20033;-76
2023/04/21 02:27:30;;;;;;;11.13;6.22;;;5.70;99.90;;;4.87;100.00;100714.47;4131955;28;20030;-76
2023/04/21 02:29:31;;;;;;;13.02;6.43;;;5.70;99.90;;;4.86;100.00;100711.03;4139309;28;20482;-76
2023/04/21 02:31:32;;;;;;;10.90;6.68;;;5.60;99.90;;;4.86;100.00;100715.44;4138858;28;20105;-76
2023/04/21 02:33:33;;;;;;;9.88;6.95;;;5.60;99.90;;;4.84;100.00;100714.69;4138113;28;20450;-77
2023/04/21 02:35:34;;;;;;;10.45;6.57;;;5.60;99.90;;;4.78;100.00;100707.38;4130560;28;20104;-76
2023/04/21 02:37:35;;;;;;;15.43;7.32;;;5.60;99.90;;;4.79;100.00;100719.47;4134640;28;20482;-76
2023/04/21 02:39:36;;;;;;;12.77;6.70;;;5.60;99.90;;;4.73;100.00;100712.09;4137971;28;20081;-76
2023/04/21 02:41:38;;;;;;;14.88;7.28;;;5.60;99.90;;;4.74;100.00;100721.63;4127816;28;20038;-76
2023/04/21 02:43:39;;;;;;;8.93;6.65;;;5.50;99.90;;;4.64;100.00;100707.59;4138909;28;20502;-76
2023/04/21 02:45:40;;;;;;;14.15;7.45;;;5.50;99.90;;;4.64;100.00;100715.44;4137437;28;20050;-77
2023/04/21 02:47:41;;;;;;;11.02;6.90;;;5.40;99.90;;;4.63;100.00;100724.25;4137160;28;20029;-76
2023/04/21 02:49:42;;;;;;;12.30;7.43;;;5.40;99.90;;;4.61;100.00;100728.72;4138978;28;20030;-76
2023/04/21 02:51:43;;;;;;;11.95;7.00;;;5.40;99.90;;;4.56;100.00;100717.81;4139003;28;20046;-77
2023/04/21 02:53:44;;;;;;;10.85;6.40;;;5.30;99.90;;;4.56;100.00;100717.81;4138910;28;20102;-76
2023/04/21 02:55:45;;;;;;;12.93;7.13;;;5.30;99.90;;;4.52;100.00;100716.38;4137622;28;20022;-77
2023/04/21 02:57:46;;;;;;;10.77;6.53;;;5.30;99.90;;;4.48;100.00;100721.84;4125308;28;20027;-77
2023/04/21 02:59:46;;;;;;;8.45;6.43;;;5.30;99.90;;;4.43;100.00;100712.69;4138634;28;20497;-76
2023/04/21 03:01:48;;;;;;;10.32;6.65;;;5.20;99.90;;;4.43;100.00;100708.31;4137597;28;20049;-76
2023/04/21 03:03:48;;;;;;;11.63;6.63;;;5.30;99.90;;;4.42;100.00;100711.84;4135840;28;20371;-76
2023/04/21 03:05:59;;;;;;;12.90;7.00;;;5.20;99.90;;;4.34;100.00;100708.16;4138801;28;20045;-76
2023/04/21 03:08:00;;;;;;;12.25;6.95;;;5.20;99.90;;;4.34;100.00;100703.78;4137527;28;20398;-76
2023/04/21 03:10:02;;;;;;;16.08;8.18;;;5.10;99.90;;;4.28;100.00;100699.03;4133338;28;20041;-77
2023/04/21 03:12:02;;;;;;;16.23;8.05;;;5.10;99.90;;;4.30;100.00;100691.91;4137225;28;20026;-76
2023/04/21 03:14:03;;;;;;;15.80;6.90;;;5.10;99.90;;;4.27;100.00;100697.34;4127042;28;20033;-76
2023/04/21 03:16:05;;;;;;;25.10;7.80;;;5.10;99.90;;;4.25;100.00;100693.19;4136808;28;20023;-76
2023/04/21 03:18:05;;;;;;;16.70;7.00;;;5.10;99.90;;;4.25;100.00;100698.41;4132352;28;20073;-76
2023/04/21 03:20:07;;;;;;;16.05;9.05;;;5.10;99.90;;;4.25;100.00;100687.97;4138546;28;20030;-76
2023/04/21 03:22:08;;;;;;;14.30;8.23;;;5.10;99.90;;;4.39;100.00;100695.63;4138663;28;20557;-76
2023/04/21 03:24:09;;;;;;;17.35;9.55;;;5.20;99.90;;;4.54;100.00;100704.84;4137408;28;20076;-76
2023/04/21 03:26:10;;;;;;;12.07;8.07;;;5.20;99.90;;;4.64;100.00;100697.13;4123324;28;20090;-76
2023/04/21 03:28:11;;;;;;;10.55;7.03;;;5.30;99.90;;;4.64;100.00;100699.75;4136338;28;20026;-76
2023/04/21 03:30:12;;;;;;;12.23;7.10;;;5.40;99.90;;;4.55;100.00;100693.47;4138058;28;20042;-76
2023/04/21 03:32:13;;;;;;;17.65;8.90;;;5.40;99.90;;;4.54;100.00;100704.03;4137261;28;20073;-77
2023/04/21 03:34:14;;;;;;;15.60;9.00;;;5.40;99.90;;;4.51;100.00;100706.91;4132669;28;20026;-76
2023/04/21 03:36:15;;;;;;;13.55;8.20;;;5.40;99.90;;;4.53;100.00;100705.81;4153106;28;20022;-76
2023/04/21 03:38:15;;;;;;;15.40;8.50;;;5.30;99.90;;;4.57;100.00;100702.00;4138362;28;20375;-76
2023/04/21 03:40:16;;;;;;;14.50;8.80;;;5.40;99.90;;;4.62;100.00;100701.66;4137084;28;20026;-76
2023/04/21 03:42:17;;;;;;;12.85;8.45;;;5.40;99.90;;;4.62;100.00;100692.06;4130762;28;20042;-76
2023/04/21 03:44:18;;;;;;;14.82;8.27;;;5.40;99.90;;;4.58;100.00;100698.44;4136766;28;20057;-76
2023/04/21 03:46:20;;;;;;;13.57;9.60;;;5.40;99.90;;;4.54;100.00;100690.97;4138014;28;20031;-76
2023/04/21 03:48:21;;;;;;;13.63;9.38;;;5.40;99.90;;;4.56;100.00;100696.91;4137009;28;20026;-76
2023/04/21 03:50:23;;;;;;;13.88;8.63;;;5.40;99.90;;;4.46;100.00;100689.78;4130024;28;20105;-76
2023/04/21 03:52:24;;;;;;;17.77;9.82;;;5.30;99.90;;;4.42;100.00;100685.75;4136836;28;20018;-76
2023/04/21 03:54:25;;;;;;;15.50;8.43;;;5.30;99.90;;;4.38;100.00;100683.50;4137853;28;20041;-76
2023/04/21 03:56:26;;;;;;;13.70;9.73;;;5.20;99.90;;;4.34;100.00;100684.66;4136991;28;20030;-76
2023/04/21 03:58:27;;;;;;;15.38;8.77;;;5.20;99.90;;;4.27;100.00;100681.69;4129647;28;20498;-76
2023/04/21 04:00:28;;;;;;;14.30;9.80;;;5.20;99.90;;;4.21;100.00;100684.75;4133676;28;20093;-76
2023/04/21 04:02:29;;;;;;;14.07;9.52;;;5.10;99.90;;;4.23;100.00;100684.66;4137659;28;20093;-76
2023/04/21 04:04:30;;;;;;;13.02;9.10;;;5.10;99.90;;;4.22;100.00;100683.00;4137842;28;20093;-76
2023/04/21 04:06:31;;;;;;;15.70;8.90;;;5.00;99.90;;;4.19;100.00;100678.84;4136508;28;20041;-76
2023/04/21 04:08:32;;;;;;;14.68;8.88;;;5.00;99.90;;;4.17;100.00;100669.47;4137674;28;20014;-76
2023/04/21 04:10:33;;;;;;;14.02;8.80;;;5.00;99.90;;;4.13;100.00;100668.88;4136336;28;20038;-76
2023/04/21 04:12:34;;;;;;;16.38;9.77;;;5.00;99.90;;;4.06;100.00;100665.03;4120403;28;20046;-76
2023/04/21 04:14:35;;;;;;;14.90;9.13;;;5.00;99.90;;;4.06;100.00;100678.09;4137468;28;20030;-76
2023/04/21 04:16:36;;;;;;;12.57;8.85;;;4.90;99.90;;;4.03;100.00;100672.31;4137608;28;20033;-76
2023/04/21 04:18:37;;;;;;;19.95;10.48;;;4.90;99.90;;;4.00;100.00;100668.16;4136320;28;20034;-76
2023/04/21 04:20:37;;;;;;;19.10;10.60;;;4.90;99.90;;;4.00;100.00;100665.53;4125330;28;20022;-76
2023/04/21 04:22:38;;;;;;;15.23;9.75;;;4.80;99.90;;;3.97;100.00;100659.72;4128249;28;20033;-76
2023/04/21 04:24:39;;;;;;;17.17;9.85;;;4.90;99.90;;;3.90;100.00;100656.72;4132115;28;20495;-76
2023/04/21 04:26:40;;;;;;;17.35;9.02;;;4.80;99.90;;;3.87;100.00;100656.97;4136259;28;20089;-76
2023/04/21 04:28:41;;;;;;;15.85;9.85;;;4.80;99.90;;;3.86;100.00;100657.91;4124424;28;20029;-76
2023/04/21 04:30:42;;;;;;;16.42;10.38;;;4.70;99.90;;;3.86;100.00;100650.06;4137234;28;20033;-76
2023/04/21 04:32:43;;;;;;;18.92;10.75;;;4.70;99.90;;;3.91;100.00;100668.84;4135730;28;20018;-76
2023/04/21 04:34:44;;;;;;;16.60;10.48;;;4.70;99.90;;;3.88;100.00;100661.25;4123804;28;20138;-76
2023/04/21 04:36:46;;;;;;;21.70;12.57;;;4.70;99.90;;;3.91;100.00;100658.41;4137403;28;20030;-76
2023/04/21 04:38:48;;;;;;;22.13;11.02;;;4.70;99.90;;;3.85;100.00;100643.22;4135977;28;20034;-76
2023/04/21 04:40:56;;;;;;;17.45;11.02;;;4.70;99.90;;;3.86;100.00;100656.13;4131054;28;20046;-76
2023/04/21 04:42:57;;;;;;;18.48;12.43;;;4.70;99.90;;;3.86;100.00;100655.28;4135722;28;20034;-76
2023/04/21 04:45:00;;;;;;;16.40;11.35;;;4.70;99.90;;;3.86;100.00;100660.50;4126654;28;20097;-76
2023/04/21 04:47:01;;;;;;;20.33;10.80;;;4.70;99.90;;;3.89;100.00;100662.88;4135904;28;20030;-76
2023/04/21 04:49:03;;;;;;;19.08;10.63;;;4.70;99.90;;;3.87;100.00;100656.97;4133554;28;20026;-77
2023/04/21 04:51:04;;;;;;;19.20;11.30;;;4.70;99.90;;;3.85;100.00;100651.03;4135684;28;20038;-76
2023/04/21 04:53:06;;;;;;;22.08;12.32;;;4.70;99.90;;;3.80;100.00;100650.53;4126955;28;20386;-76
2023/04/21 04:55:07;;;;;;;16.65;10.70;;;4.70;99.90;;;3.80;100.00;100655.75;4135335;28;20406;-76
2023/04/21 04:57:08;;;;;;;20.73;11.93;;;4.60;99.90;;;3.78;100.00;100657.66;4136924;28;20033;-76
2023/04/21 04:59:09;;;;;;;19.55;11.07;;;4.70;99.90;;;3.80;100.00;100653.13;4135813;28;20034;-76
2023/04/21 05:01:16;;;;;;;18.40;11.95;;;4.70;99.90;;;3.85;100.00;100653.66;4124947;28;20022;-76
2023/04/21 05:03:17;;;;;;;18.40;10.60;;;4.70;99.90;;;3.85;100.00;100659.66;4129059;28;20026;-76
2023/04/21 05:05:19;;;;;;;17.08;10.75;;;4.70;99.90;;;3.88;100.00;100656.84;4141972;28;20085;-77
2023/04/21 05:07:20;;;;;;;19.27;11.38;;;4.70;99.90;;;3.92;100.00;100665.25;4135299;28;20030;-76
2023/04/21 05:09:21;;;;;;;19.35;11.70;;;4.70;99.90;;;3.89;100.00;100665.50;4132542;28;20073;-76
2023/04/21 05:11:22;;;;;;;17.98;11.88;;;4.70;99.90;;;3.86;100.00;100663.13;4135273;28;20026;-76
2023/04/21 05:13:22;;;;;;;21.48;13.05;;;4.70;99.90;;;3.87;100.00;100670.00;4132016;28;20026;-76
2023/04/21 05:15:23;;;;;;;19.45;11.75;;;4.70;99.90;;;3.86;100.00;100666.56;4135165;28;20018;-76
2023/04/21 05:17:24;;;;;;;18.05;11.85;;;4.70;99.90;;;3.85;100.00;100658.88;4136518;28;20030;-76
2023/04/21 05:19:25;;;;;;;20.63;12.32;;;4.70;99.90;;;3.90;100.00;100667.16;4136681;28;20037;-76
2023/04/21 05:21:27;;;;;;;21.75;12.95;;;4.70;99.90;;;3.92;100.00;100662.66;4136533;28;20034;-77
2023/04/21 05:23:28;;;;;;;22.42;12.13;;;4.80;99.90;;;3.91;100.00;100661.00;4135275;28;20058;-76
2023/04/21 05:25:28;;;;;;;19.23;11.77;;;4.80;99.90;;;3.94;100.00;100663.41;4136610;28;20026;-76
2023/04/21 05:27:29;;;;;;;22.52;12.27;;;4.80;99.90;;;3.94;100.00;100658.19;4135554;28;20088;-76
2023/04/21 05:29:32;;;;;;;21.40;12.52;;;4.80;99.90;;;3.99;100.00;100671.69;4130846;28;20034;-76
2023/04/21 05:31:33;;;;;;;17.77;11.85;;;4.80;99.90;;;4.01;100.00;100672.41;4135775;28;20083;-76
2023/04/21 05:33:34;;;;;;;19.65;12.30;;;4.80;99.90;;;4.03;100.00;100672.31;4131041;28;20019;-76
2023/04/21 05:35:35;;;;;;;22.45;14.45;;;4.80;99.90;;;4.09;100.00;100674.44;4127656;28;20031;-76
2023/04/21 05:37:36;;;;;;;19.23;12.27;;;4.90;99.90;;;4.11;100.00;100670.78;4123669;28;20035;-76
2023/04/21 05:39:37;;;;;;;24.08;13.50;;;4.90;99.90;;;4.18;100.00;100671.13;4133487;28;20109;-77
2023/04/21 05:41:38;;;;;;;21.88;13.52;;;4.90;99.90;;;4.21;100.00;100663.88;4135158;28;20032;-76
2023/04/21 05:43:39;;;;;;;19.05;11.98;;;5.00;99.90;;;4.31;100.00;100670.06;4135663;28;20050;-78
2023/04/21 05:45:39;;;;;;;18.48;11.48;;;5.00;99.90;;;4.35;100.00;100668.06;4135860;28;20038;-76
2023/04/21 05:47:40;;;;;;;19.25;12.10;;;5.10;99.90;;;4.39;100.00;100662.47;4135002;28;20038;-76
2023/04/21 05:49:48;;;;;;;20.30;12.68;;;5.20;99.90;;;4.46;100.00;100668.06;4124008;28;20062;-76
2023/04/21 05:51:49;;;;;;;20.05;11.98;;;5.20;99.90;;;4.47;100.00;100649.66;4129107;28;20029;-76
2023/04/21 05:53:50;;;;;;;22.60;12.55;;;5.20;99.90;;;4.62;100.00;100659.88;4134252;28;20398;-76
2023/04/21 05:55:51;;;;;;;21.17;13.27;;;5.40;99.90;;;4.71;100.00;100646.91;4119547;28;20034;-76
2023/04/21 05:57:52;;;;;;;19.40;12.65;;;5.40;99.90;;;4.91;100.00;100659.22;4124652;28;20026;-76
2023/04/21 05:59:52;;;;;;;23.75;13.45;;;5.60;99.90;;;4.96;100.00;100648.38;4150840;28;20022;-76
2023/04/21 06:01:53;;;;;;;20.30;13.13;;;5.70;99.90;;;5.01;100.00;100641.03;4130912;28;20026;-77
2023/04/21 06:03:54;;;;;;;19.25;13.95;;;5.70;99.90;;;5.10;100.00;100642.91;4132690;28;20514;-77
2023/04/21 06:05:56;;;;;;;18.50;12.73;;;5.80;99.90;;;5.18;100.00;100647.50;4120086;28;20034;-77
2023/04/21 06:07:57;;;;;;;19.13;13.40;;;5.90;99.90;;;5.23;100.00;100647.97;4127563;28;20030;-77
2023/04/21 06:09:58;;;;;;;21.83;13.00;;;5.90;99.90;;;5.27;100.00;100642.38;4114615;28;20037;-78
2023/04/21 06:11:59;;;;;;;19.00;12.90;;;6.00;99.90;;;5.38;100.00;100644.09;4133710;28;20537;-78
2023/04/21 06:14:00;;;;;;;16.67;11.65;;;6.00;99.90;;;5.44;100.00;100644.44;4133215;28;20078;-79
2023/04/21 06:16:01;;;;;;;21.67;13.38;;;6.10;99.90;;;5.47;100.00;100644.19;4119124;28;20023;-77
2023/04/21 06:18:02;;;;;;;21.83;14.30;;;6.20;99.90;;;5.43;100.00;100634.13;4119670;28;20038;-79
2023/04/21 06:20:04;;;;;;;17.92;13.27;;;6.20;99.90;;;5.49;100.00;100631.84;4119554;28;20034;-78
2023/04/21 06:22:05;;;;;;;20.50;13.38;;;6.20;99.90;;;5.55;100.00;100636.53;4142754;28;20038;-78
2023/04/21 06:24:06;;;;;;;20.58;14.27;;;6.30;99.90;;;5.59;100.00;100626.63;4121066;28;20436;-79
2023/04/21 06:26:08;;;;;;;22.95;14.52;;;6.30;99.90;;;5.62;100.00;100631.63;4129255;28;20034;-78
2023/04/21 06:28:09;;;;;;;18.17;13.00;;;6.30;99.90;;;5.66;100.00;100622.56;4133232;28;20498;-78
2023/04/21 06:30:10;;;;;;;24.20;13.43;;;6.40;99.90;;;5.64;100.00;100619.25;4135115;28;20038;-78
2023/04/21 06:32:11;;;;;;;20.45;13.75;;;6.40;99.90;;;5.70;100.00;100615.31;4135171;28;20510;-77
2023/04/21 06:34:12;;;;;;;20.17;13.98;;;6.40;99.90;;;5.77;100.00;100619.03;4135148;28;20102;-78
2023/04/21 06:36:13;;;;;;;21.02;13.07;;;6.50;99.90;;;5.82;100.00;100612.50;4132719;28;20022;-78
2023/04/21 06:38:14;;;;;;;20.50;14.30;;;6.50;99.90;;;5.93;100.00;100629.94;4134360;28;20466;-79
2023/04/21 06:40:15;;;;;;;20.95;14.18;;;6.60;99.90;;;5.99;100.00;100629.41;4126083;28;20096;-78
2023/04/21 06:42:15;;;;;;;22.58;14.43;;;6.70;99.90;;;6.05;100.00;100631.53;4133766;28;20030;-78
2023/04/21 06:44:17;;;;;;;21.98;14.65;;;6.70;99.90;;;6.09;100.00;100630.31;4131765;28;20043;-78
2023/04/21 06:46:17;;;;;;;21.20;14.95;;;6.80;99.90;;;6.15;100.00;100629.78;4118668;28;20031;-79
2023/04/21 06:48:18;;;;;;;20.73;13.52;;;6.90;99.90;;;6.29;100.00;100636.47;4108634;28;20030;-79
2023/04/21 06:50:19;;;;;;;18.77;13.90;;;7.00;99.90;;;6.32;100.00;100626.56;4127836;28;20030;-80
2023/04/21 06:52:20;;;;;;;19.15;12.75;;;7.10;99.90;;;6.45;100.00;100635.00;4131832;28;20023;-79
2023/04/21 06:54:21;;;;;;;19.55;13.60;;;7.10;99.90;;;6.61;100.00;100635.34;4131070;28;20081;-78
2023/04/21 06:56:22;;;;;;;21.33;14.18;;;7.20;99.90;;;6.74;100.00;100635.13;4119111;28;20027;-78
2023/04/21 06:58:23;;;;;;;21.73;13.73;;;7.40;99.90;;;6.86;100.00;100626.19;4119015;28;20027;-78
2023/04/21 07:00:24;;;;;;;21.58;14.07;;;7.50;99.90;;;7.01;100.00;100624.00;4130561;28;20031;-78
2023/04/21 07:02:24;;;;;;;21.92;14.35;;;7.60;99.90;;;7.15;100.00;100626.22;4135587;28;20030;-84
2023/04/21 07:04:30;;;;;;;17.67;13.10;;;7.70;99.90;;;7.23;100.00;100623.72;4130440;28;20042;-78
2023/04/21 07:06:31;;;;;;;22.05;14.95;;;7.80;99.90;;;7.24;100.00;100625.38;4122575;28;20533;-78
2023/04/21 07:08:32;;;;;;;22.80;14.48;;;7.90;99.90;;;7.28;100.00;100625.94;4121254;28;20043;-78
2023/04/21 07:10:33;;;;;;;20.55;15.27;;;7.90;99.90;;;7.36;100.00;100626.91;4124612;28;20027;-85
2023/04/21 07:12:34;;;;;;;21.92;15.07;;;8.00;99.90;;;7.38;100.00;100624.97;4127855;28;20026;-83
2023/04/21 07:14:35;;;;;;;23.75;16.00;;;8.00;99.90;;;7.49;100.00;100624.00;4124800;28;20053;-84
2023/04/21 07:16:36;;;;;;;23.70;15.98;;;8.10;99.90;;;7.61;100.00;100622.91;4150358;28;20026;-83
2023/04/21 07:18:39;;;;;;;25.63;15.68;;;8.20;99.90;;;7.67;100.00;100623.19;4137350;28;20041;-84
2023/04/21 07:20:40;;;;;;;21.80;14.80;;;8.30;99.90;;;7.82;100.00;100614.84;4127696;28;20019;-84
2023/04/21 07:22:41;;;;;;;21.60;15.05;;;8.40;99.90;;;7.98;100.00;100620.31;4137343;28;20109;-83
2023/04/21 07:24:42;;;;;;;20.02;14.88;;;8.60;99.90;;;8.15;100.00;100616.97;4135220;28;20022;-84
2023/04/21 07:26:42;;;;;;;24.17;14.95;;;8.70;99.90;;;8.21;100.00;100611.16;4138270;28;20026;-84
2023/04/21 07:28:43;;;;;;;21.27;15.40;;;8.80;99.90;;;8.20;100.00;100609.47;4138347;28;20394;-84
2023/04/21 07:30:44;;;;;;;23.42;14.45;;;8.80;99.90;;;8.20;100.00;100609.47;4137080;28;20022;-83
2023/04/21 07:32:45;;;;;;;21.83;15.25;;;8.90;99.90;;;8.15;100.00;100611.72;4134604;28;20153;-84
2023/04/21 07:34:47;;;;;;;23.83;16.52;;;8.90;99.90;;;8.07;100.00;100603.72;4136881;28;20046;-84
2023/04/21 07:36:48;;;;;;;22.25;15.52;;;8.90;99.90;;;8.02;100.00;100600.69;4138379;28;20072;-83
2023/04/21 07:38:49;;;;;;;22.58;15.52;;;8.90;99.90;;;7.94;100.00;100590.91;4136960;28;20058;-84
2023/04/21 07:40:50;;;;;;;19.67;14.90;;;8.80;99.90;;;8.06;100.00;100589.78;4138172;28;20409;-83
2023/04/21 07:42:51;;;;;;;23.27;15.40;;;8.90;99.90;;;8.13;100.00;100597.88;4136851;28;20182;-83
2023/04/21 07:44:53;;;;;;;22.65;15.45;;;8.90;99.90;;;8.13;100.00;100587.38;4132727;28;20072;-84
2023/04/21 07:46:54;;;;;;;19.75;15.02;;;8.90;99.90;;;8.16;100.00;100582.66;4129045;28;20027;-84
2023/04/21 07:48:56;;;;;;;23.20;15.50;;;8.90;99.90;;;8.17;100.00;100588.75;4133354;28;20029;-84
2023/04/21 07:50:59;;;;;;;23.13;15.57;;;8.90;99.90;;;8.00;100.00;100586.88;4137918;28;20471;-85
2023/04/21 07:53:00;;;;;;;22.45;15.13;;;8.80;99.90;;;7.95;100.00;100589.91;4120770;28;20023;-84
2023/04/21 07:55:01;;;;;;;20.48;14.50;;;8.80;99.90;;;7.96;100.00;100582.88;4138011;28;20027;-84
2023/04/21 07:57:02;;;;;;;21.02;15.38;;;8.80;99.90;;;8.02;100.00;100584.94;4136649;28;20526;-84
2023/04/21 07:59:03;;;;;;;24.10;15.90;;;8.80;99.90;;;8.09;100.00;100578.16;4137837;28;20057;-84
2023/04/21 08:01:04;;;;;;;21.83;16.08;;;8.80;99.90;;;8.21;100.00;100580.41;4136582;28;20030;-84
2023/04/21 08:03:05;;;;;;;22.65;15.18;;;8.90;99.90;;;8.38;100.00;100580.66;4128662;28;20034;-84
2023/04/21 08:05:06;;;;;;;26.30;16.27;;;9.00;99.90;;;8.29;99.62;100577.13;4126623;28;20027;-84
2023/04/21 08:07:08;;;;;;;21.42;15.73;;;9.10;99.90;;;8.40;99.89;100573.47;4134875;28;20070;-84
2023/04/21 08:09:09;;;;;;;20.55;15.60;;;9.10;99.90;;;8.49;99.46;100581.31;4125200;28;20023;-84
2023/04/21 08:11:10;;;;;;;19.95;14.60;;;9.20;99.90;;;8.49;99.00;100586.56;4129654;28;20089;-84
2023/04/21 08:13:11;;;;;;;22.70;15.38;;;9.20;99.90;;;8.47;99.57;100575.38;4137613;28;20027;-83
2023/04/21 08:15:12;;;;;;;20.75;15.00;;;9.20;99.90;;;8.64;99.53;100565.84;4122015;28;20077;-84
2023/04/21 08:17:12;;;;;;;19.38;14.85;;;9.30;99.90;;;8.60;98.86;100573.19;4123781;28;20014;-85
2023/04/21 08:19:13;;;;;;;29.52;15.52;;;9.40;99.90;;;8.67;99.18;100569.03;4137663;28;20045;-84
2023/04/21 08:21:14;;;;;;;20.77;14.27;;;9.40;99.90;;;8.87;98.27;100574.97;4137587;28;20033;-84
2023/04/21 08:23:15;;;;;;;22.35;15.55;;;9.50;99.90;;;8.98;98.07;100569.50;4137379;28;20034;-85